createdAt,value
2018-05-10T00:01:21.721Z,94336.96
2018-05-10T00:03:55.331Z,94332.53
2018-05-10T00:06:21.809Z,94338.27
2018-05-10T00:08:48.264Z,94337.77
2018-05-10T00:11:14.710Z,94333.52
2018-05-10T00:13:41.163Z,94342.71
2018-05-10T00:16:07.728Z,94338.78
2018-05-10T00:18:34.345Z,94331.39
2018-05-10T00:21:01.062Z,94328.06
2018-05-10T00:23:27.814Z,94325.69
2018-05-10T00:25:54.280Z,94329.11
2018-05-10T00:28:21.632Z,94329.42
2018-05-10T00:30:48.377Z,94330.34
2018-05-10T00:33:14.982Z,94326.35
2018-05-10T00:35:41.786Z,94331.50
2018-05-10T00:38:08.340Z,94333.59
2018-05-10T00:40:34.911Z,94336.27
2018-05-10T00:43:01.550Z,94334.34
2018-05-10T00:45:28.369Z,94335.05
2018-05-10T00:47:54.970Z,94333.59
2018-05-10T00:50:21.601Z,94330.71
2018-05-10T00:52:48.173Z,94334.16
2018-05-10T00:55:14.739Z,94331.52
2018-05-10T00:57:41.345Z,94330.11
2018-05-10T01:00:07.952Z,94326.77
2018-05-10T01:02:34.536Z,94325.97
2018-05-10T01:05:01.225Z,94323.70
2018-05-10T01:07:29.949Z,94322.05
2018-05-10T01:09:56.480Z,94327.88
2018-05-10T01:12:23.034Z,94330.22
2018-05-10T01:14:49.646Z,94336.65
2018-05-10T01:17:16.406Z,94333.59
2018-05-10T01:19:42.896Z,94336.58
2018-05-10T01:22:09.457Z,94337.41
2018-05-10T01:24:36.039Z,94337.75
2018-05-10T01:27:02.534Z,94334.09
2018-05-10T01:29:29.064Z,94331.80
2018-05-10T01:31:55.559Z,94331.64
2018-05-10T01:34:22.264Z,94330.09
2018-05-10T01:36:48.749Z,94335.67
2018-05-10T01:39:15.192Z,94337.70
2018-05-10T01:41:41.706Z,94336.50
2018-05-10T01:44:08.212Z,94333.97
2018-05-10T01:46:34.756Z,94336.72
2018-05-10T01:49:01.294Z,94334.15
2018-05-10T01:51:27.914Z,94340.19
2018-05-10T01:53:54.505Z,94340.86
2018-05-10T01:56:20.985Z,94333.38
2018-05-10T01:58:47.724Z,94335.98
2018-05-10T02:01:14.219Z,94336.67
2018-05-10T02:03:40.839Z,94338.52
2018-05-10T02:06:07.496Z,94342.51
2018-05-10T02:08:34.067Z,94341.09
2018-05-10T02:13:29.741Z,94347.92
2018-05-10T02:15:56.250Z,94350.83
2018-05-10T02:18:22.806Z,94351.31
2018-05-10T02:20:49.342Z,94345.47
2018-05-10T02:23:16.013Z,94346.88
2018-05-10T02:25:42.655Z,94350.84
2018-05-10T02:28:09.201Z,94349.58
2018-05-10T02:30:35.827Z,94354.38
2018-05-10T02:33:02.370Z,94349.91
2018-05-10T02:35:29.037Z,94352.28
2018-05-10T02:37:55.653Z,94355.67
2018-05-10T02:40:22.283Z,94354.35
2018-05-10T02:42:49.074Z,94362.73
2018-05-10T02:45:15.669Z,94362.90
2018-05-10T02:47:42.472Z,94365.94
2018-05-10T02:50:09.044Z,94367.98
2018-05-10T02:52:35.726Z,94365.60
2018-05-10T02:55:02.466Z,94365.38
2018-05-10T02:57:29.267Z,94363.03
2018-05-10T02:59:55.787Z,94367.04
2018-05-10T03:02:22.316Z,94361.27
2018-05-10T03:04:48.981Z,94369.63
2018-05-10T03:07:15.625Z,94371.53
2018-05-10T03:09:42.123Z,94372.61
2018-05-10T03:12:09.001Z,94381.15
2018-05-10T03:14:35.658Z,94376.47
2018-05-10T03:17:02.324Z,94378.17
2018-05-10T03:19:28.925Z,94380.65
2018-05-10T03:21:55.926Z,94390.11
2018-05-10T03:24:22.510Z,94392.44
2018-05-10T03:26:48.905Z,94392.00
2018-05-10T03:29:15.434Z,94395.16
2018-05-10T03:31:41.878Z,94396.19
2018-05-10T03:34:08.348Z,94400.89
2018-05-10T03:36:34.961Z,94397.16
2018-05-10T03:39:01.649Z,94401.64
2018-05-10T03:41:28.213Z,94401.75
2018-05-10T03:43:54.899Z,94401.76
2018-05-10T03:46:21.363Z,94408.64
2018-05-10T03:48:47.777Z,94406.33
2018-05-10T03:51:14.891Z,94409.67
2018-05-10T03:53:41.545Z,94407.25
2018-05-10T03:56:08.115Z,94412.12
2018-05-10T03:58:34.606Z,94410.58
2018-05-10T04:01:01.241Z,94410.45
2018-05-10T04:03:50.698Z,94408.86
2018-05-10T04:06:29.553Z,94417.87
2018-05-10T04:09:08.216Z,94417.98
2018-05-10T04:11:34.689Z,94419.37
2018-05-10T04:14:01.241Z,94421.66
2018-05-10T04:16:27.984Z,94416.95
2018-05-10T04:18:54.472Z,94421.89
2018-05-10T04:21:21.077Z,94424.86
2018-05-10T04:23:47.512Z,94419.05
2018-05-10T04:26:14.112Z,94423.77
2018-05-10T04:28:40.540Z,94421.58
2018-05-10T04:31:07.324Z,94427.22
2018-05-10T04:33:34.105Z,94421.78
2018-05-10T04:36:00.571Z,94422.05
2018-05-10T04:38:27.049Z,94424.83
2018-05-10T04:40:53.685Z,94430.22
2018-05-10T04:43:20.142Z,94429.41
2018-05-10T04:45:46.686Z,94430.31
2018-05-10T04:48:13.162Z,94433.37
2018-05-10T04:50:39.690Z,94433.23
2018-05-10T04:53:06.255Z,94427.94
2018-05-10T04:55:32.899Z,94434.20
2018-05-10T04:57:59.416Z,94437.50
2018-05-10T05:00:25.837Z,94441.82
2018-05-10T05:02:52.603Z,94442.27
2018-05-10T05:05:19.266Z,94447.41
2018-05-10T05:07:45.988Z,94454.45
2018-05-10T05:10:12.620Z,94453.64
2018-05-10T05:12:39.078Z,94448.22
2018-05-10T05:15:05.658Z,94453.92
2018-05-10T05:17:32.119Z,94454.91
2018-05-10T05:19:59.016Z,94453.05
2018-05-10T05:22:25.674Z,94451.38
2018-05-10T05:24:52.355Z,94457.68
2018-05-10T05:27:18.991Z,94459.67
2018-05-10T05:29:45.557Z,94461.28
2018-05-10T05:32:12.165Z,94464.48
2018-05-10T05:34:38.749Z,94466.17
2018-05-10T05:37:05.602Z,94463.41
2018-05-10T05:39:32.215Z,94470.14
2018-05-10T05:41:58.969Z,94468.45
2018-05-10T05:44:25.481Z,94471.23
2018-05-10T05:46:52.053Z,94466.11
2018-05-10T05:49:18.629Z,94465.88
2018-05-10T05:51:45.163Z,94467.34
2018-05-10T05:54:11.864Z,94468.09
2018-05-10T05:56:38.387Z,94464.89
2018-05-10T05:59:05.056Z,94474.22
2018-05-10T06:01:31.540Z,94469.54
2018-05-10T06:03:58.296Z,94470.36
2018-05-10T06:06:24.881Z,94475.56
2018-05-10T06:08:51.400Z,94479.23
2018-05-10T06:11:17.957Z,94479.83
2018-05-10T06:13:44.714Z,94482.97
2018-05-10T06:16:11.298Z,94485.47
2018-05-10T06:18:37.916Z,94484.27
2018-05-10T06:21:04.411Z,94487.66
2018-05-10T06:23:30.888Z,94490.43
2018-05-10T06:25:57.459Z,94488.38
2018-05-10T06:28:24.096Z,94490.28
2018-05-10T06:30:50.624Z,94499.76
2018-05-10T06:33:17.098Z,94496.63
2018-05-10T06:35:43.679Z,94499.64
2018-05-10T06:38:10.234Z,94492.78
2018-05-10T06:40:37.423Z,94495.23
2018-05-10T06:43:04.145Z,94496.39
2018-05-10T06:45:30.667Z,94500.36
2018-05-10T06:47:57.315Z,94500.16
2018-05-10T06:50:23.734Z,94499.91
2018-05-10T06:52:50.307Z,94498.45
2018-05-10T06:55:16.928Z,94507.06
2018-05-10T06:57:43.483Z,94512.36
2018-05-10T07:00:10.103Z,94507.19
2018-05-10T07:02:36.597Z,94509.48
2018-05-10T07:05:03.209Z,94514.55
2018-05-10T07:07:29.657Z,94520.45
2018-05-10T07:09:56.418Z,94512.83
2018-05-10T07:12:22.975Z,94506.51
2018-05-10T07:14:49.568Z,94506.99
2018-05-10T07:17:16.070Z,94511.33
2018-05-10T07:19:42.762Z,94507.70
2018-05-10T07:22:09.470Z,94514.33
2018-05-10T07:24:35.977Z,94516.70
2018-05-10T07:27:02.618Z,94515.45
2018-05-10T07:29:29.259Z,94520.47
2018-05-10T07:31:55.698Z,94519.38
2018-05-10T07:34:22.270Z,94525.55
2018-05-10T07:36:48.946Z,94521.29
2018-05-10T07:39:15.602Z,94517.31
2018-05-10T07:41:42.227Z,94526.07
2018-05-10T07:44:08.850Z,94521.11
2018-05-10T07:46:35.459Z,94522.86
2018-05-10T07:49:02.090Z,94520.53
2018-05-10T07:51:28.642Z,94524.18
2018-05-10T07:53:55.130Z,94532.30
2018-05-10T07:56:21.767Z,94527.28
2018-05-10T07:58:48.388Z,94530.53
2018-05-10T08:01:15.091Z,94528.63
2018-05-10T08:03:41.770Z,94533.42
2018-05-10T08:06:08.446Z,94530.28
2018-05-10T08:08:35.036Z,94539.12
2018-05-10T08:11:01.682Z,94537.84
2018-05-10T08:13:28.164Z,94541.00
2018-05-10T08:15:54.875Z,94542.30
2018-05-10T08:18:21.470Z,94544.66
2018-05-10T08:20:48.217Z,94549.70
2018-05-10T08:23:14.771Z,94553.73
2018-05-10T08:25:41.598Z,94553.18
2018-05-10T08:28:08.440Z,94551.89
2018-05-10T08:30:36.090Z,94547.50
2018-05-10T08:33:03.723Z,94553.53
2018-05-10T08:35:30.377Z,94558.19
2018-05-10T08:37:57.049Z,94552.32
2018-05-10T08:40:23.859Z,94549.44
2018-05-10T08:42:51.298Z,94552.41
2018-05-10T08:45:17.972Z,94548.55
2018-05-10T08:47:44.642Z,94556.45
2018-05-10T08:50:11.375Z,94546.53
2018-05-10T08:52:37.987Z,94545.91
2018-05-10T08:55:04.699Z,94549.51
2018-05-10T08:57:31.244Z,94549.90
2018-05-10T09:00:04.836Z,94539.86
2018-05-10T09:02:31.546Z,94548.74
2018-05-10T09:04:58.050Z,94550.06
2018-05-10T09:07:24.814Z,94552.00
2018-05-10T09:09:51.625Z,94543.80
2018-05-10T09:12:18.248Z,94544.21
2018-05-10T09:14:44.844Z,94551.42
2018-05-10T09:17:11.392Z,94548.08
2018-05-10T09:19:37.922Z,94536.91
2018-05-10T09:22:04.523Z,94537.88
2018-05-10T09:24:31.249Z,94544.12
2018-05-10T09:26:57.924Z,94536.61
2018-05-10T09:29:24.679Z,94537.96
2018-05-10T09:31:51.329Z,94528.56
2018-05-10T09:34:18.093Z,94516.83
2018-05-10T09:36:44.729Z,94518.20
2018-05-10T09:39:11.309Z,94517.30
2018-05-10T09:41:37.943Z,94538.73
2018-05-10T09:44:04.415Z,94519.23
2018-05-10T09:46:31.752Z,94519.70
2018-05-10T09:48:58.644Z,94517.92
2018-05-10T09:51:25.329Z,94503.14
2018-05-10T09:53:51.934Z,94498.68
2018-05-10T09:56:18.484Z,94498.19
2018-05-10T09:58:45.018Z,94498.06
2018-05-10T10:01:11.480Z,94495.95
2018-05-10T10:03:38.167Z,94492.39
2018-05-10T10:06:04.867Z,94485.81
2018-05-10T10:08:31.580Z,94498.36
2018-05-10T10:10:58.094Z,94492.67
2018-05-10T10:13:24.639Z,94499.91
2018-05-10T10:15:51.213Z,94495.53
2018-05-10T10:18:17.793Z,94503.80
2018-05-10T10:20:44.422Z,94497.37
2018-05-10T10:23:10.963Z,94505.55
2018-05-10T10:25:37.575Z,94513.66
2018-05-10T10:28:04.160Z,94496.28
2018-05-10T10:30:30.865Z,94513.19
2018-05-10T10:32:57.499Z,94513.02
2018-05-10T10:35:24.155Z,94514.59
2018-05-10T10:37:50.861Z,94512.98
2018-05-10T10:40:17.647Z,94511.63
2018-05-10T10:42:47.233Z,94507.09
2018-05-10T10:45:13.816Z,94508.41
2018-05-10T10:47:40.433Z,94505.31
2018-05-10T10:50:14.050Z,94511.20
2018-05-10T10:52:40.517Z,94513.33
2018-05-10T10:55:07.224Z,94504.95
2018-05-10T10:57:33.878Z,94508.70
2018-05-10T11:00:00.588Z,94500.86
2018-05-10T11:02:27.351Z,94513.23
2018-05-10T11:04:53.832Z,94511.09
2018-05-10T11:07:20.546Z,94508.41
2018-05-10T11:09:47.078Z,94505.25
2018-05-10T11:12:13.721Z,94521.71
2018-05-10T11:14:40.373Z,94512.09
2018-05-10T11:17:06.874Z,94513.96
2018-05-10T11:19:33.546Z,94507.00
2018-05-10T11:22:00.041Z,94505.83
2018-05-10T11:24:26.667Z,94500.09
2018-05-10T11:26:53.255Z,94495.98
2018-05-10T11:29:19.946Z,94508.73
2018-05-10T11:31:46.542Z,94505.77
2018-05-10T11:34:13.186Z,94499.78
2018-05-10T11:36:39.992Z,94498.34
2018-05-10T11:39:06.756Z,94515.38
2018-05-10T11:41:33.500Z,94512.20
2018-05-10T11:44:00.049Z,94512.81
2018-05-10T11:46:26.729Z,94518.12
2018-05-10T11:48:53.447Z,94523.54
2018-05-10T11:51:20.006Z,94521.69
2018-05-10T11:53:46.716Z,94516.27
2018-05-10T11:56:13.414Z,94527.00
2018-05-10T11:58:40.508Z,94547.81
2018-05-10T12:01:07.097Z,94534.66
2018-05-10T12:03:33.747Z,94537.16
2018-05-10T12:06:00.386Z,94535.30
2018-05-10T12:08:26.888Z,94531.05
2018-05-10T12:10:53.496Z,94530.83
2018-05-10T12:13:20.044Z,94540.30
2018-05-10T12:15:46.583Z,94535.19
2018-05-10T12:18:13.272Z,94537.69
2018-05-10T12:20:39.912Z,94532.29
2018-05-10T12:23:06.422Z,94558.69
2018-05-10T12:25:33.332Z,94544.69
2018-05-10T12:28:00.105Z,94554.38
2018-05-10T12:30:26.793Z,94537.11
2018-05-10T12:32:53.260Z,94537.88
2018-05-10T12:35:19.977Z,94535.15
2018-05-10T12:37:46.813Z,94537.60
2018-05-10T12:40:13.352Z,94528.48
2018-05-10T12:42:40.061Z,94533.91
2018-05-10T12:45:06.909Z,94529.72
2018-05-10T12:47:33.482Z,94534.36
2018-05-10T12:50:00.108Z,94545.38
2018-05-10T12:52:26.643Z,94548.97
2018-05-10T12:54:53.434Z,94545.92
2018-05-10T12:57:20.141Z,94546.88
2018-05-10T12:59:46.771Z,94556.25
2018-05-10T13:02:13.343Z,94556.73
2018-05-10T13:04:39.867Z,94563.30
2018-05-10T13:07:06.563Z,94564.30
2018-05-10T13:09:33.195Z,94570.91
2018-05-10T13:11:59.863Z,94573.15
2018-05-10T13:14:26.708Z,94566.42
2018-05-10T13:16:53.299Z,94568.36
2018-05-10T13:19:19.852Z,94579.88
2018-05-10T13:21:46.617Z,94577.20
2018-05-10T13:24:13.326Z,94570.38
2018-05-10T13:26:39.867Z,94576.50
2018-05-10T13:29:06.445Z,94580.74
2018-05-10T13:31:32.984Z,94572.83
2018-05-10T13:33:59.790Z,94579.19
2018-05-10T13:36:26.376Z,94587.61
2018-05-10T13:38:52.998Z,94582.56
2018-05-10T13:41:19.649Z,94585.27
2018-05-10T13:43:46.363Z,94582.56
2018-05-10T13:46:13.089Z,94585.50
2018-05-10T13:48:39.725Z,94586.27
2018-05-10T13:51:06.410Z,94587.70
2018-05-10T13:53:33.002Z,94590.04
2018-05-10T13:55:59.509Z,94593.48
2018-05-10T13:58:26.116Z,94598.52
2018-05-10T14:00:52.599Z,94592.54
2018-05-10T14:03:19.223Z,94594.57
2018-05-10T14:05:45.848Z,94591.13
2018-05-10T14:08:13.800Z,94598.57
2018-05-10T14:10:40.957Z,94598.37
2018-05-10T14:13:07.563Z,94601.27
2018-05-10T14:15:34.170Z,94601.58
2018-05-10T14:18:00.839Z,94605.77
2018-05-10T14:20:27.321Z,94605.22
2018-05-10T14:22:54.146Z,94605.05
2018-05-10T14:25:20.872Z,94613.23
2018-05-10T14:27:47.449Z,94612.53
2018-05-10T14:30:14.130Z,94618.08
2018-05-10T14:32:40.736Z,94617.16
2018-05-10T14:35:07.403Z,94623.38
2018-05-10T14:37:34.061Z,94626.07
2018-05-10T14:40:01.017Z,94627.19
2018-05-10T14:42:27.687Z,94625.06
2018-05-10T14:44:54.343Z,94627.87
2018-05-10T14:47:20.971Z,94632.30
2018-05-10T14:49:48.075Z,94632.12
2018-05-10T14:52:14.781Z,94633.98
2018-05-10T14:54:41.393Z,94637.69
2018-05-10T14:57:07.919Z,94634.67
2018-05-10T14:59:34.719Z,94636.63
2018-05-10T15:02:01.354Z,94637.86
2018-05-10T15:04:27.873Z,94638.46
2018-05-10T15:06:54.631Z,94641.77
2018-05-10T15:09:21.133Z,94645.00
2018-05-10T15:11:47.643Z,94643.02
2018-05-10T15:14:14.519Z,94647.45
2018-05-10T15:16:41.271Z,94655.23
2018-05-10T15:19:07.775Z,94664.23
2018-05-10T15:21:34.465Z,94666.19
2018-05-10T15:24:01.113Z,94670.78
2018-05-10T15:26:27.623Z,94661.70
2018-05-10T15:28:54.268Z,94666.34
2018-05-10T15:31:20.797Z,94666.89
2018-05-10T15:33:47.233Z,94667.56
2018-05-10T15:36:14.011Z,94658.66
2018-05-10T15:38:40.646Z,94662.23
2018-05-10T15:41:07.197Z,94663.67
2018-05-10T15:43:33.926Z,94661.91
2018-05-10T15:46:00.633Z,94668.36
2018-05-10T15:48:27.145Z,94662.20
2018-05-10T15:50:53.621Z,94665.44
2018-05-10T15:53:21.193Z,94650.14
2018-05-10T15:55:47.897Z,94658.88
2018-05-10T15:58:14.477Z,94655.09
2018-05-10T16:00:41.034Z,94655.05
2018-05-10T16:03:07.679Z,94667.70
2018-05-10T16:05:34.464Z,94659.98
2018-05-10T16:08:00.995Z,94661.11
2018-05-10T16:10:27.598Z,94659.88
2018-05-10T16:12:54.069Z,94660.73
2018-05-10T16:15:20.636Z,94657.64
2018-05-10T16:17:47.181Z,94653.86
2018-05-10T16:20:13.656Z,94654.41
2018-05-10T16:22:40.195Z,94653.55
2018-05-10T16:25:06.741Z,94659.15
2018-05-10T16:27:33.337Z,94657.89
2018-05-10T16:30:00.106Z,94649.65
2018-05-10T16:32:26.694Z,94653.47
2018-05-10T16:34:53.284Z,94666.59
2018-05-10T16:37:19.793Z,94666.03
2018-05-10T16:39:46.321Z,94659.02
2018-05-10T16:42:13.077Z,94665.58
2018-05-10T16:44:39.598Z,94671.82
2018-05-10T16:47:06.358Z,94673.43
2018-05-10T16:49:33.673Z,94673.77
2018-05-10T16:52:00.353Z,94677.08
2018-05-10T16:54:27.341Z,94681.71
2018-05-10T16:56:53.999Z,94677.62
2018-05-10T16:59:20.559Z,94681.88
2018-05-10T17:01:47.223Z,94682.81
2018-05-10T17:04:14.334Z,94684.97
2018-05-10T17:06:41.003Z,94678.86
2018-05-10T17:09:07.726Z,94686.97
2018-05-10T17:11:34.400Z,94690.16
2018-05-10T17:14:01.104Z,94697.65
2018-05-10T17:16:27.763Z,94695.46
2018-05-10T17:18:55.379Z,94709.91
2018-05-10T17:21:23.280Z,94708.58
2018-05-10T17:23:50.052Z,94706.24
2018-05-10T17:26:16.627Z,94707.42
2018-05-10T17:28:43.270Z,94707.38
2018-05-10T17:31:09.901Z,94701.78
2018-05-10T17:33:36.432Z,94700.66
2018-05-10T17:36:03.035Z,94696.98
2018-05-10T17:38:29.734Z,94712.16
2018-05-10T17:40:56.625Z,94715.22
2018-05-10T17:43:23.684Z,94719.81
2018-05-10T17:45:50.464Z,94716.98
2018-05-10T17:48:17.143Z,94714.55
2018-05-10T17:50:44.321Z,94721.73
2018-05-10T17:53:11.358Z,94723.14
2018-05-10T17:55:38.062Z,94726.08
2018-05-10T17:58:04.556Z,94724.53
2018-05-10T18:00:31.109Z,94731.44
2018-05-10T18:02:57.692Z,94729.28
2018-05-10T18:05:24.116Z,94730.67
2018-05-10T18:07:50.606Z,94738.70
2018-05-10T18:10:17.343Z,94738.50
2018-05-10T18:12:43.928Z,94737.75
2018-05-10T18:15:11.019Z,94739.86
2018-05-10T18:17:37.488Z,94745.84
2018-05-10T18:20:04.136Z,94750.05
2018-05-10T18:22:31.042Z,94754.02
2018-05-10T18:24:58.420Z,94756.17
2018-05-10T18:27:25.047Z,94753.53
2018-05-10T18:29:51.738Z,94755.92
2018-05-10T18:32:18.220Z,94762.26
2018-05-10T18:34:44.880Z,94767.48
2018-05-10T18:37:11.482Z,94770.48
2018-05-10T18:39:37.949Z,94770.39
2018-05-10T18:42:04.432Z,94770.33
2018-05-10T18:44:31.008Z,94773.63
2018-05-10T18:46:57.592Z,94785.56
2018-05-10T18:49:24.377Z,94782.22
2018-05-10T18:51:50.977Z,94785.72
2018-05-10T18:54:17.435Z,94797.09
2018-05-10T18:56:44.009Z,94793.94
2018-05-10T18:59:10.689Z,94801.75
2018-05-10T19:01:37.064Z,94804.52
2018-05-10T19:04:03.658Z,94809.50
2018-05-10T19:06:32.995Z,94809.71
2018-05-10T19:08:59.677Z,94811.02
2018-05-10T19:11:26.256Z,94807.29
2018-05-10T19:13:52.854Z,94812.47
2018-05-10T19:16:19.293Z,94815.86
2018-05-10T19:18:45.772Z,94810.45
2018-05-10T19:21:12.270Z,94811.02
2018-05-10T19:23:39.369Z,94815.45
2018-05-10T19:26:06.003Z,94812.81
2018-05-10T19:28:34.592Z,94817.19
2018-05-10T19:31:01.146Z,94810.41
2018-05-10T19:33:27.721Z,94818.80
2018-05-10T19:35:54.229Z,94824.37
2018-05-10T19:38:20.579Z,94817.25
2018-05-10T19:40:47.081Z,94818.87
2018-05-10T19:43:13.847Z,94819.16
2018-05-10T19:45:40.293Z,94823.64
2018-05-10T19:48:06.828Z,94822.33
2018-05-10T19:50:33.465Z,94827.44
2018-05-10T19:53:01.323Z,94829.91
2018-05-10T19:55:27.803Z,94823.02
2018-05-10T19:57:54.214Z,94819.27
2018-05-10T20:00:20.765Z,94822.02
2018-05-10T20:02:47.156Z,94826.00
2018-05-10T20:05:13.705Z,94821.64
2018-05-10T20:07:40.317Z,94822.20
2018-05-10T20:10:06.793Z,94819.73
2018-05-10T20:12:33.405Z,94820.44
2018-05-10T20:14:59.904Z,94817.67
2018-05-10T20:17:26.592Z,94824.41
2018-05-10T20:19:53.126Z,94830.73
2018-05-10T20:22:19.872Z,94834.13
2018-05-10T20:24:46.401Z,94834.86
2018-05-10T20:27:12.903Z,94846.44
2018-05-10T20:29:39.416Z,94836.77
2018-05-10T20:32:06.048Z,94846.77
2018-05-10T20:34:32.853Z,94846.56
2018-05-10T20:36:59.515Z,94849.02
2018-05-10T20:39:26.810Z,94845.80
2018-05-10T20:41:53.228Z,94854.07
2018-05-10T20:44:19.827Z,94855.06
2018-05-10T20:46:46.345Z,94857.25
2018-05-10T20:49:12.886Z,94856.16
2018-05-10T20:51:39.210Z,94854.65
2018-05-10T20:54:05.620Z,94850.64
2018-05-10T20:56:32.052Z,94857.47
2018-05-10T20:58:58.637Z,94854.77
2018-05-10T21:01:25.152Z,94858.75
2018-05-10T21:03:51.592Z,94865.05
2018-05-10T21:06:18.029Z,94862.52
2018-05-10T21:08:44.486Z,94855.09
2018-05-10T21:11:11.208Z,94858.83
2018-05-10T21:13:37.624Z,94869.30
2018-05-10T21:16:04.108Z,94864.78
2018-05-10T21:18:30.592Z,94867.35
2018-05-10T21:20:57.253Z,94868.67
2018-05-10T21:23:25.317Z,94870.80
2018-05-10T21:25:51.820Z,94866.55
2018-05-10T21:28:18.899Z,94866.15
2018-05-10T21:30:45.417Z,94863.67
2018-05-10T21:33:12.925Z,94860.62
2018-05-10T21:35:39.476Z,94863.75
2018-05-10T21:38:06.022Z,94859.38
2018-05-10T21:40:32.434Z,94868.12
2018-05-10T21:42:59.713Z,94869.55
2018-05-10T21:45:26.262Z,94872.09
2018-05-10T21:47:52.974Z,94868.45
2018-05-10T21:50:19.632Z,94871.61
2018-05-10T21:52:46.111Z,94877.38
2018-05-10T21:55:12.799Z,94876.79
2018-05-10T21:57:39.474Z,94872.20
2018-05-10T22:00:06.151Z,94877.13
2018-05-10T22:02:33.042Z,94882.09
2018-05-10T22:04:59.767Z,94879.77
2018-05-10T22:07:26.672Z,94877.31
2018-05-10T22:09:53.443Z,94874.66
2018-05-10T22:12:20.073Z,94874.38
2018-05-10T22:14:46.968Z,94882.93
2018-05-10T22:17:13.744Z,94881.34
2018-05-10T22:19:40.439Z,94873.99
2018-05-10T22:22:06.902Z,94875.75
2018-05-10T22:24:33.465Z,94874.09
2018-05-10T22:27:00.263Z,94866.06
2018-05-10T22:29:26.860Z,94869.55
2018-05-10T22:31:53.282Z,94871.33
2018-05-10T22:34:19.819Z,94865.53
2018-05-10T22:36:46.321Z,94860.87
2018-05-10T22:39:12.862Z,94869.55
2018-05-10T22:41:39.523Z,94873.87
2018-05-10T22:44:06.238Z,94872.26
2018-05-10T22:46:32.759Z,94865.46
2018-05-10T22:48:59.539Z,94861.20
2018-05-10T22:51:25.971Z,94863.52
2018-05-10T22:53:52.515Z,94866.17
2018-05-10T22:56:19.181Z,94859.59
2018-05-10T22:58:45.749Z,94856.95
2018-05-10T23:01:12.328Z,94854.09
2018-05-10T23:03:38.920Z,94859.53
2018-05-10T23:06:05.460Z,94860.41
2018-05-10T23:08:32.128Z,94866.10
2018-05-10T23:10:58.649Z,94854.60
2018-05-10T23:13:25.052Z,94856.37
2018-05-10T23:15:51.714Z,94848.55
2018-05-10T23:18:18.409Z,94847.20
2018-05-10T23:20:44.983Z,94849.00
2018-05-10T23:23:11.664Z,94849.37
2018-05-10T23:25:38.348Z,94855.66
2018-05-10T23:28:04.988Z,94862.30
2018-05-10T23:30:31.709Z,94856.25
2018-05-10T23:32:58.332Z,94852.02
2018-05-10T23:35:24.800Z,94849.02
2018-05-10T23:37:51.431Z,94845.16
2018-05-10T23:40:18.065Z,94848.31
2018-05-10T23:42:44.668Z,94850.23
2018-05-10T23:45:11.356Z,94848.61
2018-05-10T23:47:37.978Z,94849.94
2018-05-10T23:50:04.739Z,94853.91
2018-05-10T23:52:31.362Z,94867.50
2018-05-10T23:54:57.953Z,94873.03
2018-05-10T23:57:24.598Z,94869.08
2018-05-10T23:59:51.336Z,94870.10
